.
WxDataArchive / Data Records for 2008-12-05
2008-12-04 December 2008 2008-12-06

Data Records for Friday, 05 December 2008

Time	Temp	Chill	HIndex	Humid	Dewpt	 Wind 	HiWind	WindDir	Rain 	Barom 
-----	----	-----	------	-----	-----	------	------	-------	-----	----- 
00:00	18.1	18.1	18.1	74	11.2	1	3	248	0.00	30.390 
00:05	18.1	18.1	18.1	75	11.5	1	2	225	0.00	30.390 
00:10	18.0	18.0	18.0	75	11.4	1	3	248	0.00	30.390 
00:15	17.8	17.8	17.8	76	11.5	1	6	248	0.00	30.389 
00:20	17.8	17.8	17.8	76	11.5	1	10	248	0.00	30.387 
00:25	17.7	17.7	17.7	77	11.7	0	3	270	0.00	30.384 
00:30	17.5	17.5	17.5	77	11.5	1	3	248	0.00	30.381 
00:35	17.5	17.5	17.5	77	11.5	2	5	270	0.00	30.379 
00:40	17.5	17.5	17.5	77	11.5	1	3	248	0.00	30.378 
00:45	17.3	17.3	17.3	78	11.6	1	2	248	0.00	30.378 
00:50	17.3	17.3	17.3	78	11.6	2	5	270	0.00	30.376 
00:55	17.3	17.3	17.3	78	11.6	1	3	248	0.00	30.375 
01:00	17.2	17.2	17.2	78	11.5	0	3	248	0.00	30.375 
01:05	17.2	17.2	17.2	79	11.8	1	4	248	0.00	30.370 
01:10	17.2	17.2	17.2	79	11.8	1	3	248	0.00	30.367 
01:15	17.0	17.0	17.0	79	11.6	1	4	248	0.00	30.367 
01:20	17.0	17.0	17.0	79	11.6	1	4	248	0.00	30.363 
01:25	16.9	16.9	16.9	80	11.8	0	5	248	0.00	30.362 
01:30	16.9	16.9	16.9	80	11.8	1	4	248	0.00	30.363 
01:35	16.9	16.9	16.9	80	11.8	1	4	248	0.00	30.362 
01:40	16.7	16.7	16.7	80	11.6	1	3	248	0.00	30.361 
01:45	16.7	16.7	16.7	81	11.9	1	5	248	0.00	30.359 
01:50	16.7	16.7	16.7	81	11.9	0	2	248	0.00	30.359 
01:55	16.5	16.5	16.5	81	11.7	0	2	248	0.00	30.360 
02:00	16.5	16.5	16.5	81	11.7	1	3	248	0.00	30.358 
02:05	16.4	16.4	16.4	81	11.6	2	5	248	0.00	30.361 
02:10	16.5	16.5	16.5	81	11.7	1	4	248	0.00	30.359 
02:15	16.4	16.4	16.4	81	11.6	1	5	248	0.00	30.361 
02:20	16.4	16.4	16.4	81	11.6	1	3	248	0.00	30.360 
02:25	16.4	16.4	16.4	81	11.6	1	3	248	0.00	30.361 
02:30	16.4	16.4	16.4	81	11.6	1	5	248	0.00	30.361 
02:35	16.4	16.4	16.4	81	11.6	1	3	248	0.00	30.360 
02:40	16.4	16.4	16.4	81	11.6	0	4	248	0.00	30.360 
02:45	16.4	16.4	16.4	81	11.6	2	7	248	0.00	30.360 
02:50	16.4	16.4	16.4	81	11.6	1	4	248	0.00	30.362 
02:55	16.4	16.4	16.4	81	11.6	1	3	248	0.00	30.363 
03:00	16.4	16.4	16.4	81	11.6	1	4	248	0.00	30.363 
03:05	16.4	16.4	16.4	81	11.6	1	3	248	0.00	30.362 
03:10	16.4	16.4	16.4	81	11.6	1	4	248	0.00	30.361 
03:15	16.4	16.4	16.4	81	11.6	2	4	248	0.00	30.362 
03:20	16.4	16.4	16.4	81	11.6	1	6	225	0.00	30.362 
03:25	16.4	16.4	16.4	81	11.6	2	6	248	0.00	30.362 
03:30	16.4	16.4	16.4	81	11.6	1	6	248	0.00	30.362 
03:35	16.4	16.4	16.4	80	11.3	2	5	248	0.00	30.362 
03:40	16.4	16.4	16.4	80	11.3	1	4	248	0.00	30.362 
03:45	16.4	16.4	16.4	80	11.3	2	6	248	0.00	30.362 
03:50	16.4	16.4	16.4	80	11.3	1	4	248	0.00	30.362 
03:55	16.4	16.4	16.4	80	11.3	2	5	248	0.00	30.362 
04:00	16.4	16.4	16.4	80	11.3	2	6	248	0.00	30.362 
04:05	16.4	16.4	16.4	80	11.3	2	6	248	0.00	30.363 
04:10	16.4	16.4	16.4	80	11.3	2	6	248	0.00	30.362 
04:15	16.4	16.4	16.4	80	11.3	3	6	248	0.00	30.362 
04:20	16.4	16.4	16.4	80	11.3	2	5	248	0.00	30.361 
04:25	16.4	16.4	16.4	80	11.3	2	7	248	0.00	30.360 
04:30	16.2	16.2	16.2	80	11.1	1	5	225	0.00	30.356 
04:35	16.2	16.2	16.2	80	11.1	2	5	248	0.00	30.358 
04:40	16.2	16.2	16.2	81	11.4	2	4	248	0.00	30.355 
04:45	16.2	16.2	16.2	81	11.4	2	7	248	0.00	30.354 
04:50	16.2	16.2	16.2	81	11.4	2	6	248	0.00	30.355 
04:55	16.2	16.2	16.2	81	11.4	2	7	248	0.00	30.353 
05:00	16.2	16.2	16.2	81	11.4	2	6	248	0.00	30.352 
05:05	16.2	16.2	16.2	81	11.4	1	5	248	0.00	30.349 
05:10	16.2	16.2	16.2	81	11.4	2	6	248	0.00	30.347 
05:15	16.2	16.2	16.2	81	11.4	2	7	248	0.00	30.349 
05:20	16.2	16.2	16.2	80	11.1	2	9	248	0.00	30.348 
05:25	16.1	16.1	16.1	80	11.0	2	5	248	0.00	30.347 
05:30	16.1	16.1	16.1	80	11.0	2	6	248	0.00	30.349 
05:35	16.1	16.1	16.1	80	11.0	2	6	225	0.00	30.347 
05:40	16.1	16.1	16.1	79	10.8	3	9	270	0.00	30.347 
05:45	16.1	16.1	16.1	79	10.8	1	6	248	0.00	30.347 
05:50	15.9	15.9	15.9	79	10.6	2	5	248	0.00	30.348 
05:55	15.9	15.9	15.9	78	10.3	2	7	248	0.00	30.347 
06:00	15.9	15.9	15.9	78	10.3	2	4	248	0.00	30.346 
06:05	15.9	15.9	15.9	78	10.3	2	5	248	0.00	30.346 
06:10	15.7	15.7	15.7	78	10.1	1	6	248	0.00	30.347 
06:15	15.7	15.7	15.7	78	10.1	1	6	248	0.00	30.349 
06:20	15.6	15.6	15.6	78	10.0	1	4	270	0.00	30.352 
06:25	15.6	15.6	15.6	78	10.0	1	4	248	0.00	30.352 
06:30	15.6	15.6	15.6	78	10.0	2	5	270	0.00	30.353 
06:35	15.6	15.6	15.6	78	10.0	2	6	248	0.00	30.352 
06:40	15.4	15.4	15.4	78	9.8	1	4	248	0.00	30.357 
06:45	15.4	15.4	15.4	78	9.8	2	6	248	0.00	30.358 
06:50	15.2	15.2	15.2	78	9.6	2	6	248	0.00	30.362 
06:55	15.2	15.2	15.2	78	9.6	2	6	248	0.00	30.364 
07:00	15.1	15.1	15.1	79	9.8	1	4	225	0.00	30.365 
07:05	15.1	15.1	15.1	78	9.5	1	6	248	0.00	30.365 
07:10	14.9	14.9	14.9	78	9.3	2	4	248	0.00	30.367 
07:15	14.9	14.9	14.9	78	9.3	2	6	248	0.00	30.367 
07:20	14.9	14.9	14.9	78	9.3	2	5	248	0.00	30.368 
07:25	14.8	14.8	14.8	78	9.2	2	7	248	0.00	30.366 
07:30	14.6	14.6	14.6	78	9.0	2	4	248	0.00	30.365 
07:35	14.4	14.4	14.4	78	8.8	1	6	248	0.00	30.365 
07:40	14.3	14.3	14.3	78	8.7	1	4	248	0.00	30.366 
07:45	14.1	14.1	14.1	78	8.5	1	4	248	0.00	30.364 
07:50	14.1	14.1	14.1	78	8.5	2	5	248	0.00	30.365 
07:55	14.0	14.0	14.0	78	8.4	1	4	248	0.00	30.365 
08:00	13.8	13.8	13.8	78	8.2	1	6	248	0.00	30.367 
08:05	13.8	13.8	13.8	78	8.2	2	5	270	0.00	30.367 
08:10	13.6	13.6	13.6	78	8.0	1	5	248	0.00	30.367 
08:15	13.6	13.6	13.6	78	8.0	2	7	248	0.00	30.365 
08:20	13.6	13.6	13.6	78	8.0	1	5	248	0.00	30.364 
08:25	13.6	13.6	13.6	78	8.0	1	4	248	0.00	30.364 
08:30	13.5	13.5	13.5	79	8.2	1	2	248	0.00	30.364 
08:35	13.5	13.5	13.5	79	8.2	2	6	248	0.00	30.364 
08:40	13.6	13.6	13.6	79	8.3	1	4	248	0.00	30.365 
08:45	13.6	13.6	13.6	79	8.3	2	6	248	0.00	30.364 
08:50	13.6	13.6	13.6	79	8.3	2	5	248	0.00	30.364 
08:55	13.6	13.6	13.6	79	8.3	2	6	248	0.00	30.365 
09:00	13.6	13.6	13.6	78	8.0	3	9	248	0.00	30.366 
09:05	13.8	13.8	13.8	78	8.2	2	7	248	0.00	30.367 
09:10	14.0	14.0	14.0	78	8.4	2	5	248	0.00	30.367 
09:15	14.1	14.1	14.1	78	8.5	1	4	248	0.00	30.367 
09:20	14.1	14.1	14.1	77	8.2	2	5	248	0.00	30.366 
09:25	14.3	14.3	14.3	76	8.1	2	9	248	0.00	30.366 
09:30	14.1	14.1	14.1	75	7.7	3	6	248	0.00	30.365 
09:35	14.3	14.3	14.3	75	7.9	3	7	248	0.00	30.366 
09:40	14.3	14.3	14.3	74	7.6	3	6	270	0.00	30.367 
09:45	14.4	14.4	14.4	73	7.4	3	9	248	0.00	30.368 
09:50	14.4	14.4	14.4	73	7.4	3	11	270	0.00	30.371 
09:55	14.6	14.6	14.6	73	7.5	2	4	270	0.00	30.370 
10:00	15.1	15.1	15.1	72	7.7	1	4	248	0.00	30.367 
10:05	15.1	15.1	15.1	71	7.4	3	9	270	0.00	30.370 
10:10	15.2	15.2	15.2	71	7.5	2	4	248	0.00	30.376 
10:15	15.4	15.4	15.4	71	7.7	2	5	248	0.00	30.371 
10:20	15.6	15.6	15.6	69	7.3	2	7	248	0.00	30.368 
10:25	15.6	15.6	15.6	69	7.3	2	11	248	0.00	30.370 
10:30	15.7	15.7	15.7	69	7.4	2	5	270	0.00	30.369 
10:35	15.7	15.7	15.7	68	7.0	2	9	248	0.00	30.368 
10:40	16.1	16.1	16.1	68	7.4	1	4	248	0.00	30.369 
10:45	16.2	16.2	16.2	68	7.5	2	6	225	0.00	30.370 
10:50	16.4	16.4	16.4	67	7.4	3	7	248	0.00	30.368 
10:55	16.2	9.8	16.2	66	6.9	4	10	270	0.00	30.369 
11:00	16.2	16.2	16.2	67	7.2	2	7	270	0.00	30.367 
11:05	16.9	16.9	16.9	68	8.2	1	4	248	0.00	30.368 
11:10	17.2	17.2	17.2	66	7.8	2	11	270	0.00	30.368 
11:15	17.0	17.0	17.0	65	7.3	2	5	270	0.00	30.369 
11:20	17.2	17.2	17.2	66	7.8	2	7	248	0.00	30.367 
11:25	16.5	16.5	16.5	66	7.2	3	7	270	0.00	30.363 
11:30	16.4	16.4	16.4	67	7.4	2	9	270	0.00	30.366 
11:35	16.4	16.4	16.4	68	7.7	3	9	248	0.00	30.366 
11:40	16.9	16.9	16.9	68	8.2	3	9	270	0.00	30.364 
11:45	16.9	10.6	16.9	68	8.2	4	10	248	0.00	30.363 
11:50	17.3	17.3	17.3	67	8.3	3	9	270	0.00	30.363 
11:55	17.5	17.5	17.5	67	8.4	3	6	270	0.00	30.357 
12:00	17.8	17.8	17.8	66	8.4	3	11	248	0.00	30.350 
12:05	17.7	17.7	17.7	65	8.0	3	7	270	0.00	30.351 
12:10	17.3	17.3	17.3	66	7.9	3	7	270	0.00	30.347 
12:15	17.3	17.3	17.3	67	8.3	3	9	270	0.00	30.344 
12:20	17.2	17.2	17.2	66	7.8	2	6	270	0.00	30.338 
12:25	17.2	17.2	17.2	65	7.5	3	9	270	0.00	30.335 
12:30	17.0	17.0	17.0	65	7.3	2	5	270	0.00	30.332 
12:35	17.2	17.2	17.2	65	7.5	3	9	270	0.00	30.327 
12:40	17.2	17.2	17.2	65	7.5	3	6	248	0.00	30.326 
12:45	17.2	17.2	17.2	64	7.1	3	10	270	0.00	30.328 
12:50	17.0	17.0	17.0	64	7.0	2	6	270	0.00	30.321 
12:55	17.2	17.2	17.2	66	7.8	2	5	270	0.00	30.320 
13:00	17.3	17.3	17.3	65	7.6	2	5	270	0.00	30.320 
13:05	17.3	17.3	17.3	64	7.2	3	6	270	0.00	30.319 
13:10	17.3	17.3	17.3	63	6.9	2	6	248	0.00	30.317 
13:15	17.2	17.2	17.2	62	6.4	2	5	270	0.00	30.315 
13:20	17.0	17.0	17.0	61	5.9	3	6	270	0.00	30.314 
13:25	17.5	17.5	17.5	61	6.4	2	7	248	0.00	30.307 
13:30	18.1	12.0	18.1	60	6.6	4	7	270	0.00	30.305 
13:35	18.6	18.6	18.6	58	6.3	3	10	270	0.00	30.305 
13:40	18.1	10.7	18.1	58	5.8	5	13	270	0.00	30.301 
13:45	18.0	11.9	18.0	57	5.4	4	11	270	0.00	30.298 
13:50	18.3	12.3	18.3	58	6.0	4	9	248	0.00	30.295 
13:55	17.8	10.4	17.8	58	5.6	5	12	270	0.00	30.298 
14:00	17.5	11.3	17.5	58	5.3	4	10	270	0.00	30.295 
14:05	17.2	17.2	17.2	58	5.0	3	6	270	0.00	30.298 
14:10	17.2	17.2	17.2	60	5.7	2	7	270	0.00	30.294 
14:15	17.2	17.2	17.2	59	5.4	3	7	270	0.00	30.294 
14:20	17.2	17.2	17.2	59	5.4	3	8	248	0.00	30.292 
14:25	17.3	17.3	17.3	60	5.8	3	9	248	0.00	30.289 
14:30	17.5	17.5	17.5	59	5.6	3	9	248	0.00	30.287 
14:35	17.2	17.2	17.2	59	5.4	3	5	270	0.00	30.289 
14:40	17.2	17.2	17.2	60	5.7	2	6	248	0.00	30.288 
14:45	17.2	17.2	17.2	60	5.7	3	5	270	0.00	30.288 
14:50	17.2	17.2	17.2	60	5.7	3	12	248	0.00	30.290 
14:55	16.9	16.9	16.9	60	5.4	3	12	270	0.00	30.288 
15:00	16.5	16.5	16.5	61	5.4	3	9	270	0.00	30.289 
15:05	16.5	16.5	16.5	61	5.4	3	10	248	0.00	30.289 
15:10	16.5	16.5	16.5	61	5.4	3	11	270	0.00	30.287 
15:15	16.4	16.4	16.4	61	5.3	3	7	248	0.00	30.286 
15:20	16.4	16.4	16.4	61	5.3	3	8	248	0.00	30.288 
15:25	16.4	16.4	16.4	61	5.3	2	7	248	0.00	30.286 
15:30	16.4	10.1	16.4	60	5.0	4	10	270	0.00	30.284 
15:35	16.4	16.4	16.4	61	5.3	3	14	248	0.00	30.279 
15:40	16.4	16.4	16.4	61	5.3	3	9	248	0.00	30.279 
15:45	16.4	10.1	16.4	60	5.0	4	9	270	0.00	30.277 
15:50	16.2	16.2	16.2	60	4.8	3	7	270	0.00	30.276 
15:55	16.2	16.2	16.2	62	5.5	2	6	270	0.00	30.276 
16:00	16.4	16.4	16.4	62	5.7	2	5	248	0.00	30.275 
16:05	16.5	16.5	16.5	61	5.4	2	6	248	0.00	30.274 
16:10	16.5	16.5	16.5	61	5.4	3	7	248	0.00	30.272 
16:15	16.4	16.4	16.4	62	5.7	2	7	248	0.00	30.272 
16:20	16.2	16.2	16.2	65	6.5	3	7	270	0.00	30.272 
16:25	16.2	16.2	16.2	67	7.2	3	5	248	0.00	30.270 
16:30	16.1	16.1	16.1	66	6.8	3	7	270	0.00	30.268 
16:35	16.1	16.1	16.1	66	6.8	1	3	248	0.00	30.270 
16:40	16.1	16.1	16.1	64	6.1	2	5	270	0.00	30.272 
16:45	16.2	16.2	16.2	64	6.2	2	5	270	0.00	30.273 
16:50	16.1	16.1	16.1	65	6.4	2	4	248	0.00	30.274 
16:55	16.1	16.1	16.1	67	7.1	1	4	248	0.00	30.272 
17:00	16.1	16.1	16.1	69	7.8	1	4	248	0.00	30.273 
17:05	16.1	16.1	16.1	70	8.1	1	4	248	0.00	30.275 
17:10	16.1	16.1	16.1	70	8.1	2	7	248	0.00	30.275 
17:15	15.9	15.9	15.9	72	8.5	1	4	248	0.00	30.274 
17:20	15.7	15.7	15.7	72	8.3	2	10	248	0.00	30.273 
17:25	15.6	15.6	15.6	73	8.5	1	4	248	0.00	30.271 
17:30	15.6	15.6	15.6	71	7.9	2	9	270	0.00	30.273 
17:35	15.6	15.6	15.6	69	7.3	3	12	248	0.00	30.275 
17:40	15.6	15.6	15.6	69	7.3	3	7	270	0.00	30.273 
17:45	15.6	15.6	15.6	66	6.3	3	9	248	0.00	30.268 
17:50	15.7	15.7	15.7	65	6.1	2	7	248	0.00	30.259 
17:55	15.7	15.7	15.7	66	6.4	3	7	248	0.00	30.258 
18:00	15.7	15.7	15.7	66	6.4	2	6	248	0.00	30.256 
18:05	15.7	15.7	15.7	65	6.1	2	6	248	0.00	30.255 
18:10	15.7	15.7	15.7	65	6.1	3	10	248	0.00	30.253 
18:15	15.7	15.7	15.7	66	6.4	2	5	248	0.00	30.247 
18:20	15.7	15.7	15.7	66	6.4	2	9	248	0.00	30.244 
18:25	15.7	15.7	15.7	65	6.1	2	9	225	0.00	30.240 
18:30	15.7	15.7	15.7	64	5.7	2	7	248	0.00	30.238 
18:35	15.7	15.7	15.7	63	5.4	2	7	248	0.00	30.237 
18:40	15.7	15.7	15.7	63	5.4	2	4	248	0.00	30.233 
18:45	15.7	15.7	15.7	65	6.1	2	4	248	0.00	30.240 
18:50	15.7	15.7	15.7	65	6.1	2	5	248	0.00	30.241 
18:55	15.7	15.7	15.7	65	6.1	3	12	248	0.00	30.244 
19:00	15.7	15.7	15.7	65	6.1	3	9	248	0.00	30.242 
19:05	15.7	9.2	15.7	63	5.4	4	13	270	0.00	30.241 
19:10	15.7	15.7	15.7	62	5.0	3	11	270	0.00	30.241 
19:15	15.7	9.2	15.7	62	5.0	4	11	248	0.00	30.240 
19:20	15.7	15.7	15.7	62	5.0	2	6	248	0.00	30.238 
19:25	15.7	15.7	15.7	62	5.0	3	9	248	0.00	30.234 
19:30	15.7	15.7	15.7	62	5.0	2	7	248	0.00	30.231 
19:35	15.7	15.7	15.7	62	5.0	2	5	248	0.00	30.229 
19:40	15.7	15.7	15.7	62	5.0	2	4	248	0.00	30.229 
19:45	15.7	15.7	15.7	62	5.0	3	9	248	0.00	30.227 
19:50	15.7	15.7	15.7	62	5.0	3	8	270	0.00	30.221 
19:55	15.7	15.7	15.7	62	5.0	1	4	248	0.00	30.218 
20:00	15.7	15.7	15.7	63	5.4	1	4	248	0.00	30.214 
20:05	15.7	15.7	15.7	64	5.7	1	4	248	0.00	30.213 
20:10	15.6	15.6	15.6	65	6.0	2	5	270	0.00	30.214 
20:15	15.6	15.6	15.6	65	6.0	3	7	248	0.00	30.212 
20:20	15.4	15.4	15.4	65	5.8	2	6	248	0.00	30.210 
20:25	15.2	15.2	15.2	65	5.6	2	6	248	0.00	30.212 
20:30	15.2	15.2	15.2	66	5.9	1	5	248	0.00	30.210 
20:35	15.1	15.1	15.1	66	5.8	2	5	248	0.00	30.206 
20:40	14.9	14.9	14.9	66	5.6	3	9	248	0.00	30.199 
20:45	14.9	14.9	14.9	67	6.0	2	7	248	0.00	30.200 
20:50	14.8	14.8	14.8	67	5.9	1	9	248	0.00	30.197 
20:55	14.8	14.8	14.8	67	5.9	3	9	248	0.00	30.195 
21:00	14.6	14.6	14.6	67	5.7	2	6	248	0.00	30.191 
21:05	14.6	14.6	14.6	68	6.0	1	6	248	0.00	30.187 
21:10	14.6	14.6	14.6	68	6.0	2	4	248	0.00	30.187 
21:15	14.6	14.6	14.6	68	6.0	1	5	248	0.00	30.181 
21:20	14.6	14.6	14.6	69	6.3	1	4	248	0.00	30.183 
21:25	14.6	14.6	14.6	69	6.3	1	4	248	0.00	30.181 
21:30	14.6	14.6	14.6	69	6.3	2	4	248	0.00	30.180 
21:35	14.6	14.6	14.6	69	6.3	1	7	225	0.00	30.176 
21:40	14.4	14.4	14.4	69	6.1	1	6	225	0.00	30.175 
21:45	14.4	14.4	14.4	69	6.1	1	5	248	0.00	30.176 
21:50	14.4	14.4	14.4	69	6.1	1	4	248	0.00	30.170 
21:55	14.6	14.6	14.6	70	6.6	1	4	248	0.00	30.169 
22:00	14.6	14.6	14.6	69	6.3	1	5	248	0.00	30.166 
22:05	14.6	14.6	14.6	70	6.6	1	4	270	0.00	30.161 
22:10	14.6	14.6	14.6	70	6.6	2	7	248	0.00	30.165 
22:15	14.8	14.8	14.8	70	6.8	2	5	248	0.00	30.161 
22:20	14.8	14.8	14.8	69	6.5	1	4	248	0.00	30.158 
22:25	14.8	14.8	14.8	69	6.5	2	7	248	0.00	30.154 
22:30	14.9	14.9	14.9	70	6.9	0	3	248	0.00	30.152 
22:35	14.9	14.9	14.9	70	6.9	1	4	248	0.00	30.152 
22:40	14.9	14.9	14.9	70	6.9	1	5	248	0.00	30.150 
22:45	15.1	15.1	15.1	70	7.1	1	5	248	0.00	30.146 
22:50	15.1	15.1	15.1	70	7.1	2	4	248	0.00	30.142 
22:55	15.1	15.1	15.1	70	7.1	1	4	225	0.00	30.141 
23:00	15.2	15.2	15.2	70	7.2	2	7	248	0.00	30.139 
23:05	15.2	15.2	15.2	70	7.2	1	6	248	0.00	30.133 
23:10	15.4	15.4	15.4	71	7.7	2	6	248	0.00	30.131 
23:15	15.4	15.4	15.4	71	7.7	1	4	248	0.00	30.132 
23:20	15.4	15.4	15.4	71	7.7	1	5	248	0.00	30.132 
23:25	15.4	15.4	15.4	71	7.7	2	4	248	0.00	30.132 
23:30	15.4	15.4	15.4	71	7.7	1	5	248	0.00	30.122 
23:35	15.4	15.4	15.4	71	7.7	1	3	248	0.00	30.117 
23:40	15.4	15.4	15.4	71	7.7	1	5	248	0.00	30.115 
23:45	15.4	15.4	15.4	71	7.7	1	3	248	0.00	30.115 
23:50	15.4	15.4	15.4	71	7.7	1	5	248	0.00	30.113 
23:55	15.4	15.4	15.4	72	8.0	1	3	248	0.00	30.110 

CoCoRaHS
IN-AL-39
A2 Web Hosting
Creative Commons License
GoDaddy
search engine by freefind advanced

loaded 2018-11-17 13:03:58 • last modified 2010-11-18 10:43:29
Privacy PolicyDisclaimer
• wx.awcolley.com is powered by PmWiki v.2002016 •
• all content (unless otherwise noted) © 2018 A W Colley